Time;durP1;ratioP1;P1;durP2;ratioP2;P2;SDS_P1;SDS_P2;PMS_P1;PMS_P2;Temp;Humidity;BMP_temperature;BMP_pressure;BME280_temperature;BME280_humidity;BME280_pressure;Samples;Min_cycle;Max_cycle;Signal;HPM_P1;HPM_P2
2023/07/19 00:00:07;;;;;;;7.22;4.50;;;;;;;;;;5025079;28;20033;-69
2023/07/19 00:02:52;;;;;;;6.68;4.63;;;;;;;;;;5024271;28;20631;-69
2023/07/19 00:05:37;;;;;;;8.10;4.47;;;;;;;;;;5026584;28;20431;-68
2023/07/19 00:08:23;;;;;;;8.55;5.38;;;;;;;;;;5026471;28;20021;-67
2023/07/19 00:11:08;;;;;;;7.80;4.28;;;;;;;;;;5026494;28;20082;-68
2023/07/19 00:13:53;;;;;;;7.90;5.35;;;;;;;;;;5025278;28;20032;-68
2023/07/19 00:16:38;;;;;;;7.25;4.68;;;;;;;;;;5033529;28;20029;-66
2023/07/19 00:19:24;;;;;;;7.05;4.28;;;;;;;;;;5026601;28;20053;-67
2023/07/19 00:22:09;;;;;;;6.35;4.05;;;;;;;;;;5024590;28;20071;-67
2023/07/19 00:24:54;;;;;;;9.23;4.57;;;;;;;;;;5023505;28;20038;-67
2023/07/19 00:27:39;;;;;;;9.70;5.30;;;;;;;;;;5021716;28;20362;-68
2023/07/19 00:30:24;;;;;;;8.80;4.93;;;;;;;;;;5025372;28;20025;-66
2023/07/19 00:33:10;;;;;;;7.28;3.85;;;;;;;;;;5027442;28;20025;-67
2023/07/19 00:35:56;;;;;;;8.70;4.40;;;;;;;;;;5025576;28;20117;-74
2023/07/19 00:38:41;;;;;;;9.05;4.85;;;;;;;;;;5024900;28;20048;-62
2023/07/19 00:41:26;;;;;;;8.82;4.93;;;;;;;;;;5043396;28;20120;-65
2023/07/19 00:50:58;;;;;;;7.45;4.18;;;;;;;;;;5021570;28;20333;-64
2023/07/19 00:53:44;;;;;;;7.28;4.80;;;;;;;;;;5023168;28;20473;-72
2023/07/19 00:56:30;;;;;;;7.40;4.20;;;;;;;;;;5026280;28;20052;-76
2023/07/19 00:59:16;;;;;;;10.95;4.72;;;;;;;;;;5026161;28;20432;-76
2023/07/19 01:02:02;;;;;;;8.52;5.43;;;;;;;;;;5025527;28;20033;-75
2023/07/19 01:04:47;;;;;;;7.25;4.50;;;;;;;;;;5025538;28;20063;-76
2023/07/19 01:07:32;;;;;;;6.70;4.28;;;;;;;;;;5028040;28;20361;-76
2023/07/19 01:10:18;;;;;;;9.55;4.57;;;;;;;;;;5021316;28;20033;-67
2023/07/19 01:13:08;;;;;;;9.50;5.30;;;;;;;;;;5026077;28;20032;-73
2023/07/19 01:15:53;;;;;;;6.68;3.88;;;;;;;;;;5018737;28;20527;-72
2023/07/19 01:18:38;;;;;;;6.30;4.25;;;;;;;;;;5031258;28;20041;-75
2023/07/19 01:21:23;;;;;;;8.20;4.43;;;;;;;;;;5022903;28;20091;-73
2023/07/19 01:24:08;;;;;;;6.15;4.30;;;;;;;;;;5022854;28;20439;-75
2023/07/19 01:26:55;;;;;;;7.00;3.90;;;;;;;;;;5022389;28;20026;-72
2023/07/19 01:29:41;;;;;;;8.23;4.47;;;;;;;;;;5026669;28;20112;-69
2023/07/19 01:32:26;;;;;;;8.38;4.47;;;;;;;;;;5028043;28;20117;-77
2023/07/19 01:35:11;;;;;;;7.15;4.38;;;;;;;;;;5027088;28;20388;-75
2023/07/19 01:37:56;;;;;;;7.05;4.45;;;;;;;;;;5026321;28;20495;-76
2023/07/19 01:40:42;;;;;;;6.10;4.53;;;;;;;;;;5026256;28;20120;-75
2023/07/19 01:43:27;;;;;;;7.03;3.95;;;;;;;;;;5024233;28;20048;-80
2023/07/19 01:46:12;;;;;;;8.10;4.10;;;;;;;;;;5017328;28;20416;-76
2023/07/19 01:48:57;;;;;;;8.70;4.82;;;;;;;;;;5026361;28;20049;-74
2023/07/19 01:51:43;;;;;;;5.45;3.80;;;;;;;;;;5023112;28;20538;-68
2023/07/19 01:54:28;;;;;;;7.63;4.43;;;;;;;;;;5024665;28;20393;-69
2023/07/19 01:57:13;;;;;;;11.70;4.75;;;;;;;;;;5026051;28;20029;-68
2023/07/19 01:59:59;;;;;;;7.05;4.20;;;;;;;;;;5024839;28;20538;-68
2023/07/19 02:02:44;;;;;;;7.03;4.20;;;;;;;;;;5024447;28;20038;-68
2023/07/19 02:05:29;;;;;;;9.57;4.95;;;;;;;;;;5029869;28;20574;-64
2023/07/19 02:08:14;;;;;;;6.50;4.22;;;;;;;;;;5031596;28;20021;-67
2023/07/19 02:10:59;;;;;;;8.05;4.55;;;;;;;;;;5032728;28;20415;-68
2023/07/19 02:13:45;;;;;;;7.97;4.65;;;;;;;;;;5030695;28;20039;-70
2023/07/19 02:16:30;;;;;;;8.48;4.50;;;;;;;;;;5031173;28;20035;-68
2023/07/19 02:19:15;;;;;;;6.93;4.50;;;;;;;;;;5036598;28;20028;-69
2023/07/19 02:22:00;;;;;;;8.43;4.57;;;;;;;;;;5028748;28;20025;-69
2023/07/19 02:24:45;;;;;;;7.50;4.43;;;;;;;;;;5028498;28;20108;-67
2023/07/19 02:27:31;;;;;;;7.07;4.35;;;;;;;;;;5027861;28;20031;-68
2023/07/19 02:30:16;;;;;;;6.88;4.40;;;;;;;;;;5032517;28;20696;-68
2023/07/19 02:33:01;;;;;;;10.60;4.43;;;;;;;;;;5031860;28;20029;-68
2023/07/19 02:35:52;;;;;;;7.22;4.68;;;;;;;;;;5025675;28;20029;-66
2023/07/19 02:38:37;;;;;;;8.57;4.93;;;;;;;;;;5034354;28;20040;-66
2023/07/19 02:41:22;;;;;;;8.30;4.38;;;;;;;;;;5029222;28;20139;-68
2023/07/19 02:44:07;;;;;;;9.25;4.22;;;;;;;;;;5029520;28;20053;-69
2023/07/19 02:46:53;;;;;;;8.57;4.50;;;;;;;;;;5027648;28;20469;-68
2023/07/19 02:49:39;;;;;;;7.75;4.13;;;;;;;;;;5029935;28;20047;-68
2023/07/19 02:52:24;;;;;;;6.13;4.57;;;;;;;;;;5025200;28;20029;-67
2023/07/19 02:55:09;;;;;;;7.57;4.53;;;;;;;;;;5030854;28;20025;-68
2023/07/19 02:57:55;;;;;;;8.73;4.22;;;;;;;;;;5029635;28;20025;-69
2023/07/19 03:00:41;;;;;;;8.98;4.43;;;;;;;;;;5014601;28;20045;-69
2023/07/19 03:03:26;;;;;;;9.57;4.15;;;;;;;;;;5032344;28;20118;-64
2023/07/19 03:06:11;;;;;;;5.00;3.55;;;;;;;;;;5034351;28;20116;-66
2023/07/19 03:08:56;;;;;;;8.73;3.85;;;;;;;;;;5028240;28;20480;-67
2023/07/19 03:11:42;;;;;;;6.47;4.30;;;;;;;;;;5031738;28;20087;-65
2023/07/19 03:14:27;;;;;;;9.13;5.28;;;;;;;;;;5024967;28;20017;-65
2023/07/19 03:17:12;;;;;;;8.00;4.78;;;;;;;;;;5012306;28;20040;-65
2023/07/19 03:19:57;;;;;;;8.18;4.25;;;;;;;;;;5024167;28;20484;-71
2023/07/19 03:22:42;;;;;;;6.57;3.97;;;;;;;;;;5022675;28;20037;-61
2023/07/19 03:25:28;;;;;;;8.32;3.85;;;;;;;;;;5028999;28;20108;-61
2023/07/19 03:28:14;;;;;;;5.40;3.45;;;;;;;;;;5023621;28;20481;-60
2023/07/19 03:30:59;;;;;;;8.45;4.57;;;;;;;;;;5021485;28;20029;-63
2023/07/19 03:33:44;;;;;;;7.30;3.80;;;;;;;;;;5024002;28;20184;-64
2023/07/19 03:36:29;;;;;;;9.70;4.55;;;;;;;;;;5029464;28;20099;-65
2023/07/19 03:39:15;;;;;;;5.63;4.28;;;;;;;;;;5027643;28;20029;-73
2023/07/19 03:42:00;;;;;;;8.15;4.65;;;;;;;;;;5027860;28;20050;-72
2023/07/19 03:44:46;;;;;;;6.97;4.65;;;;;;;;;;5024453;28;20034;-71
2023/07/19 03:47:31;;;;;;;6.95;4.60;;;;;;;;;;5025562;28;20013;-71
2023/07/19 03:50:16;;;;;;;10.05;4.43;;;;;;;;;;5025462;28;20072;-72
2023/07/19 03:53:01;;;;;;;9.68;4.80;;;;;;;;;;5028426;28;20090;-70
2023/07/19 03:55:54;;;;;;;9.15;4.32;;;;;;;;;;5025720;28;20111;-70
2023/07/19 03:58:42;;;;;;;7.43;3.90;;;;;;;;;;5026452;28;21599;-75
2023/07/19 04:01:27;;;;;;;7.45;4.60;;;;;;;;;;5023980;28;20538;-66
2023/07/19 04:04:12;;;;;;;7.40;4.60;;;;;;;;;;5026323;28;20029;-71
2023/07/19 04:06:58;;;;;;;8.55;3.92;;;;;;;;;;5015319;28;20094;-67
2023/07/19 04:09:44;;;;;;;5.57;3.45;;;;;;;;;;5026225;28;20059;-65
2023/07/19 04:12:29;;;;;;;10.68;4.95;;;;;;;;;;5023477;28;20079;-66
2023/07/19 04:15:14;;;;;;;7.47;4.10;;;;;;;;;;5027147;28;20044;-73
2023/07/19 04:18:00;;;;;;;10.23;3.65;;;;;;;;;;5022017;28;20362;-76
2023/07/19 04:20:45;;;;;;;8.05;4.05;;;;;;;;;;5008089;28;20092;-72
2023/07/19 04:23:30;;;;;;;5.38;3.28;;;;;;;;;;5022617;28;20033;-72
2023/07/19 04:26:17;;;;;;;8.27;4.50;;;;;;;;;;5026535;28;20076;-73
2023/07/19 04:29:03;;;;;;;7.50;4.72;;;;;;;;;;5023280;28;20112;-71
2023/07/19 04:31:48;;;;;;;8.27;4.30;;;;;;;;;;5025279;28;20022;-71
2023/07/19 04:34:33;;;;;;;6.47;4.15;;;;;;;;;;5027774;28;20017;-75
2023/07/19 04:37:18;;;;;;;8.38;4.25;;;;;;;;;;5026963;28;20049;-75
2023/07/19 04:40:05;;;;;;;8.02;4.78;;;;;;;;;;5025351;28;20058;-74
2023/07/19 04:42:51;;;;;;;6.68;4.03;;;;;;;;;;5023265;28;20073;-74
2023/07/19 04:45:36;;;;;;;7.78;3.70;;;;;;;;;;5020484;28;20033;-74
2023/07/19 04:48:21;;;;;;;9.85;5.07;;;;;;;;;;5010704;28;20029;-74
2023/07/19 04:51:07;;;;;;;10.07;4.25;;;;;;;;;;5021644;28;20018;-64
2023/07/19 04:53:53;;;;;;;7.32;4.30;;;;;;;;;;5027043;28;20036;-64
2023/07/19 04:56:38;;;;;;;8.23;4.43;;;;;;;;;;5027606;28;20060;-72
2023/07/19 04:59:23;;;;;;;6.55;4.20;;;;;;;;;;5026296;28;20030;-71
2023/07/19 05:02:08;;;;;;;7.03;3.90;;;;;;;;;;5017647;28;20052;-75
2023/07/19 05:04:54;;;;;;;9.68;4.68;;;;;;;;;;5025996;28;20026;-72
2023/07/19 05:07:39;;;;;;;9.35;4.50;;;;;;;;;;5026082;28;20083;-71
2023/07/19 05:10:24;;;;;;;9.40;4.60;;;;;;;;;;5030964;28;20022;-69
2023/07/19 05:13:10;;;;;;;6.60;4.05;;;;;;;;;;5031668;28;20037;-72
2023/07/19 05:15:56;;;;;;;9.07;4.22;;;;;;;;;;5024500;28;20029;-71
2023/07/19 05:18:41;;;;;;;7.65;4.38;;;;;;;;;;5027181;28;20037;-71
2023/07/19 05:21:27;;;;;;;8.05;3.95;;;;;;;;;;5027327;28;20433;-72
2023/07/19 05:24:12;;;;;;;9.50;4.88;;;;;;;;;;5026758;28;20100;-71
2023/07/19 05:26:58;;;;;;;8.75;4.57;;;;;;;;;;5022995;28;20178;-72
2023/07/19 05:29:43;;;;;;;7.10;4.32;;;;;;;;;;5026286;28;20569;-67
2023/07/19 05:32:29;;;;;;;9.55;5.40;;;;;;;;;;5027297;28;20523;-72
2023/07/19 05:35:14;;;;;;;7.25;4.47;;;;;;;;;;5027514;28;20033;-72
2023/07/19 05:37:59;;;;;;;10.48;4.05;;;;;;;;;;5026286;28;20041;-75
2023/07/19 05:40:44;;;;;;;9.40;4.55;;;;;;;;;;5026102;28;20081;-73
2023/07/19 05:43:31;;;;;;;8.73;4.88;;;;;;;;;;5026626;28;20077;-72
2023/07/19 05:46:17;;;;;;;7.30;4.25;;;;;;;;;;5024862;28;20048;-65
2023/07/19 05:49:02;;;;;;;7.45;3.70;;;;;;;;;;5029774;28;20025;-73
2023/07/19 05:51:48;;;;;;;6.93;3.97;;;;;;;;;;5011117;28;20021;-63
2023/07/19 05:54:33;;;;;;;9.30;4.85;;;;;;;;;;5026707;28;20025;-67
2023/07/19 05:57:19;;;;;;;11.45;4.78;;;;;;;;;;5026556;28;20646;-62
2023/07/19 06:00:13;;;;;;;10.68;4.53;;;;;;;;;;5019764;28;20025;-69
2023/07/19 06:02:59;;;;;;;8.07;4.00;;;;;;;;;;5022155;28;20029;-64
2023/07/19 06:05:44;;;;;;;10.48;4.13;;;;;;;;;;5021804;28;20471;-63
2023/07/19 06:08:29;;;;;;;8.07;4.47;;;;;;;;;;5024748;28;20039;-65
2023/07/19 06:11:15;;;;;;;8.40;4.53;;;;;;;;;;5020676;28;20389;-63
2023/07/19 06:14:03;;;;;;;11.55;4.68;;;;;;;;;;5020398;28;20042;-63
2023/07/19 06:16:49;;;;;;;8.57;4.10;;;;;;;;;;5023564;28;20547;-62
2023/07/19 06:19:34;;;;;;;7.88;3.20;;;;;;;;;;5022944;28;20060;-64
2023/07/19 06:22:19;;;;;;;11.85;4.47;;;;;;;;;;5024964;28;20053;-65
2023/07/19 06:25:04;;;;;;;9.18;4.15;;;;;;;;;;5023521;28;20065;-67
2023/07/19 06:27:50;;;;;;;6.82;4.13;;;;;;;;;;5023264;28;20017;-72
2023/07/19 06:30:35;;;;;;;8.73;4.03;;;;;;;;;;5021060;28;20401;-80
2023/07/19 06:33:20;;;;;;;7.63;4.07;;;;;;;;;;5021845;28;20021;-78
2023/07/19 06:36:05;;;;;;;7.95;4.10;;;;;;;;;;5023571;28;20036;-77
2023/07/19 06:38:51;;;;;;;7.57;3.67;;;;;;;;;;5015959;28;20154;-77
2023/07/19 06:41:36;;;;;;;9.38;3.58;;;;;;;;;;5016918;28;20400;-69
2023/07/19 06:44:21;;;;;;;6.10;3.30;;;;;;;;;;5002930;28;20073;-69
2023/07/19 06:47:06;;;;;;;7.53;3.78;;;;;;;;;;5016108;28;20484;-69
2023/07/19 06:49:52;;;;;;;7.45;4.07;;;;;;;;;;5020749;28;20028;-69
2023/07/19 06:52:37;;;;;;;6.65;3.90;;;;;;;;;;5025510;28;20041;-74
2023/07/19 06:55:23;;;;;;;7.47;3.72;;;;;;;;;;5025938;28;20021;-69
2023/07/19 06:58:08;;;;;;;7.32;3.70;;;;;;;;;;5024651;28;20034;-69
2023/07/19 07:00:54;;;;;;;6.57;3.25;;;;;;;;;;5025019;28;20045;-69
2023/07/19 07:03:39;;;;;;;9.13;3.60;;;;;;;;;;5010632;28;20040;-74
2023/07/19 07:06:24;;;;;;;6.57;2.95;;;;;;;;;;5026754;28;20064;-70
2023/07/19 07:09:10;;;;;;;7.38;3.42;;;;;;;;;;5024733;28;20425;-67
2023/07/19 07:11:56;;;;;;;5.47;2.95;;;;;;;;;;5021114;28;20018;-79
2023/07/19 07:14:41;;;;;;;4.97;3.30;;;;;;;;;;5025372;28;20124;-73
2023/07/19 07:17:26;;;;;;;7.70;3.17;;;;;;;;;;5029420;28;20036;-72
2023/07/19 07:20:11;;;;;;;8.70;3.08;;;;;;;;;;5029522;28;20107;-77
2023/07/19 07:22:57;;;;;;;4.43;2.90;;;;;;;;;;5025627;28;20041;-68
2023/07/19 07:25:42;;;;;;;6.82;2.78;;;;;;;;;;5027740;28;20461;-69
2023/07/19 07:28:27;;;;;;;7.10;2.70;;;;;;;;;;5025001;28;20696;-68
2023/07/19 07:31:12;;;;;;;5.07;2.28;;;;;;;;;;5032621;28;20021;-68
2023/07/19 07:33:58;;;;;;;6.88;3.10;;;;;;;;;;5023558;28;20548;-70
2023/07/19 07:36:43;;;;;;;5.03;2.60;;;;;;;;;;5024716;28;20429;-67
2023/07/19 07:39:29;;;;;;;7.55;3.05;;;;;;;;;;5026689;28;20025;-68
2023/07/19 07:42:15;;;;;;;5.80;2.80;;;;;;;;;;5025861;28;20045;-68
2023/07/19 07:45:00;;;;;;;5.80;2.67;;;;;;;;;;5024730;28;20017;-68
2023/07/19 07:47:45;;;;;;;5.20;2.50;;;;;;;;;;5027774;28;20053;-69
2023/07/19 07:50:30;;;;;;;6.68;2.97;;;;;;;;;;5030901;28;20515;-69
2023/07/19 07:53:16;;;;;;;3.72;2.30;;;;;;;;;;5026132;28;20352;-70
2023/07/19 07:56:02;;;;;;;5.38;2.55;;;;;;;;;;5027675;28;20031;-70
2023/07/19 07:58:47;;;;;;;3.63;2.03;;;;;;;;;;5024402;28;20034;-70
2023/07/19 08:01:33;;;;;;;3.67;2.45;;;;;;;;;;5024792;28;20029;-67
2023/07/19 08:04:18;;;;;;;4.03;1.90;;;;;;;;;;5024735;28;20052;-71
2023/07/19 08:07:03;;;;;;;5.45;2.25;;;;;;;;;;5030091;28;20037;-68
2023/07/19 08:09:48;;;;;;;5.97;1.90;;;;;;;;;;5026063;28;20492;-69
2023/07/19 08:12:33;;;;;;;6.07;2.22;;;;;;;;;;5025910;28;20021;-68
2023/07/19 08:15:19;;;;;;;4.57;1.95;;;;;;;;;;5021913;28;20503;-70
2023/07/19 08:18:04;;;;;;;6.05;2.15;;;;;;;;;;5022241;28;20055;-69
2023/07/19 08:20:50;;;;;;;5.05;2.17;;;;;;;;;;5019422;28;20742;-69
2023/07/19 08:23:36;;;;;;;3.30;1.67;;;;;;;;;;5013915;28;20074;-70
2023/07/19 08:26:21;;;;;;;3.63;1.80;;;;;;;;;;5026347;28;20028;-70
2023/07/19 08:29:07;;;;;;;3.17;1.70;;;;;;;;;;5025019;28;20108;-71
2023/07/19 08:31:52;;;;;;;3.65;1.90;;;;;;;;;;5025666;28;20091;-69
2023/07/19 08:34:37;;;;;;;3.97;1.65;;;;;;;;;;5026206;28;20033;-66
2023/07/19 08:37:22;;;;;;;2.67;1.90;;;;;;;;;;5020290;28;20473;-71
2023/07/19 08:40:08;;;;;;;2.30;1.55;;;;;;;;;;5036717;28;20078;-73
2023/07/19 08:42:53;;;;;;;10.13;2.08;;;;;;;;;;5026836;28;20050;-75
2023/07/19 08:45:39;;;;;;;10.40;2.10;;;;;;;;;;5021305;28;20033;-70
2023/07/19 08:48:24;;;;;;;3.90;1.67;;;;;;;;;;5010694;28;20033;-69
2023/07/19 08:51:11;;;;;;;4.78;1.85;;;;;;;;;;5033847;28;20021;-70
2023/07/19 08:53:57;;;;;;;4.93;1.90;;;;;;;;;;5031824;28;20025;-70
2023/07/19 08:56:42;;;;;;;4.80;1.88;;;;;;;;;;5022120;28;20124;-68
2023/07/19 08:59:27;;;;;;;5.00;1.25;;;;;;;;;;5023134;28;20053;-70
2023/07/19 09:02:13;;;;;;;6.50;2.20;;;;;;;;;;5020111;28;20094;-69
2023/07/19 09:05:08;;;;;;;3.20;1.58;;;;;;;;;;5022269;28;20075;-68
2023/07/19 09:07:53;;;;;;;3.55;1.55;;;;;;;;;;5023379;28;20037;-70
2023/07/19 09:10:41;;;;;;;5.53;1.80;;;;;;;;;;5024942;28;20103;-66
2023/07/19 09:13:29;;;;;;;2.70;1.70;;;;;;;;;;5045368;23;20166;-61
2023/07/19 09:16:14;;;;;;;2.50;1.48;;;;;;;;;;5040720;28;20037;-63
2023/07/19 09:19:00;;;;;;;4.47;1.60;;;;;;;;;;5042842;28;20029;-63
2023/07/19 09:21:47;;;;;;;5.00;1.83;;;;;;;;;;5034906;28;20111;-64
2023/07/19 09:24:32;;;;;;;5.20;1.60;;;;;;;;;;5039431;28;20037;-64
2023/07/19 09:27:23;;;;;;;3.70;1.65;;;;;;;;;;5044217;28;20095;-63
2023/07/19 09:30:09;;;;;;;2.35;1.50;;;;;;;;;;5038666;28;20048;-65
2023/07/19 09:32:58;;;;;;;3.28;1.83;;;;;;;;;;5035503;28;20052;-64
2023/07/19 09:35:43;;;;;;;4.85;1.95;;;;;;;;;;5040292;28;20033;-64
2023/07/19 09:38:29;;;;;;;10.30;1.52;;;;;;;;;;5040024;28;20044;-62
2023/07/19 09:41:15;;;;;;;4.22;1.55;;;;;;;;;;5037459;28;20120;-62
2023/07/19 09:44:07;;;;;;;6.68;2.50;;;;;;;;;;5040516;28;20037;-63
2023/07/19 09:47:00;;;;;;;4.47;1.77;;;;;;;;;;5034731;28;20539;-66
2023/07/19 09:49:46;;;;;;;3.70;1.83;;;;;;;;;;5043602;28;20116;-69
2023/07/19 09:52:34;;;;;;;4.80;1.60;;;;;;;;;;5039481;28;20033;-71
2023/07/19 09:55:20;;;;;;;5.07;1.83;;;;;;;;;;5036810;28;20033;-71
2023/07/19 09:58:07;;;;;;;3.72;1.90;;;;;;;;;;5040023;28;20283;-67
2023/07/19 10:00:52;;;;;;;2.72;2.03;;;;;;;;;;5044515;28;20044;-68
2023/07/19 10:03:37;;;;;;;3.35;2.13;;;;;;;;;;5043633;28;20168;-68
2023/07/19 10:06:28;;;;;;;3.83;2.20;;;;;;;;;;5038655;28;20112;-64
2023/07/19 10:09:39;;;;;;;5.70;2.00;;;;;;;;;;5040669;28;20032;-67
2023/07/19 10:12:25;;;;;;;2.70;2.00;;;;;;;;;;5054893;28;20055;-65
2023/07/19 10:15:12;;;;;;;3.90;1.77;;;;;;;;;;5041858;28;20123;-65
2023/07/19 10:17:58;;;;;;;5.38;1.95;;;;;;;;;;5042038;28;20034;-66
2023/07/19 10:20:58;;;;;;;5.30;2.10;;;;;;;;;;5042065;28;20036;-69
2023/07/19 10:23:45;;;;;;;4.40;3.08;;;;;;;;;;5037123;28;20078;-65
2023/07/19 10:26:30;;;;;;;6.15;3.67;;;;;;;;;;5045259;28;21210;-63
2023/07/19 10:29:18;;;;;;;6.63;3.63;;;;;;;;;;5045996;28;20166;-64
2023/07/19 10:32:04;;;;;;;7.93;3.90;;;;;;;;;;5044425;28;20419;-63
2023/07/19 10:34:49;;;;;;;3.95;1.95;;;;;;;;;;5041402;28;21373;-64
2023/07/19 10:37:35;;;;;;;3.53;1.77;;;;;;;;;;5043647;28;20024;-66
2023/07/19 10:40:20;;;;;;;2.97;2.10;;;;;;;;;;5031765;28;20479;-68
2023/07/19 10:43:05;;;;;;;4.53;2.70;;;;;;;;;;5042951;28;20274;-68
2023/07/19 10:45:51;;;;;;;3.72;2.40;;;;;;;;;;5041758;28;20039;-63
2023/07/19 10:48:37;;;;;;;4.95;3.13;;;;;;;;;;5049327;28;20028;-66
2023/07/19 10:51:24;;;;;;;3.58;2.20;;;;;;;;;;5050649;28;20021;-64
2023/07/19 10:54:09;;;;;;;6.95;2.60;;;;;;;;;;5044906;28;20036;-65
2023/07/19 10:56:57;;;;;;;5.93;2.50;;;;;;;;;;5044681;28;20040;-66
2023/07/19 10:59:49;;;;;;;3.70;1.88;;;;;;;;;;5030321;28;20560;-75
2023/07/19 11:02:35;;;;;;;8.80;2.83;;;;;;;;;;5040234;28;20519;-67
2023/07/19 11:05:20;;;;;;;4.32;2.10;;;;;;;;;;5047408;28;20036;-66
2023/07/19 11:08:06;;;;;;;9.73;2.05;;;;;;;;;;5045103;28;20560;-67
2023/07/19 11:10:51;;;;;;;4.13;2.20;;;;;;;;;;5044164;28;20120;-69
2023/07/19 11:13:37;;;;;;;5.82;2.35;;;;;;;;;;5045554;28;20102;-67
2023/07/19 11:16:25;;;;;;;6.20;2.10;;;;;;;;;;5042902;28;20094;-69
2023/07/19 11:19:10;;;;;;;7.28;2.22;;;;;;;;;;5045851;28;20025;-73
2023/07/19 11:21:57;;;;;;;4.22;2.50;;;;;;;;;;5043179;28;20452;-73
2023/07/19 11:24:42;;;;;;;5.90;2.15;;;;;;;;;;5046543;28;20052;-74
2023/07/19 11:27:34;;;;;;;7.35;2.47;;;;;;;;;;5047729;28;20029;-74
2023/07/19 11:30:19;;;;;;;2.80;1.80;;;;;;;;;;5043123;28;20043;-75
2023/07/19 11:33:06;;;;;;;6.85;2.90;;;;;;;;;;5043626;28;20430;-75
2023/07/19 11:35:52;;;;;;;5.85;2.10;;;;;;;;;;5041371;28;20025;-72
2023/07/19 11:38:38;;;;;;;8.57;2.30;;;;;;;;;;5041717;28;20024;-70
2023/07/19 11:41:23;;;;;;;3.65;2.00;;;;;;;;;;5043570;28;20474;-77
2023/07/19 11:44:16;;;;;;;9.20;2.70;;;;;;;;;;5031292;28;20024;-78
2023/07/19 11:47:01;;;;;;;6.95;2.10;;;;;;;;;;5044095;28;20108;-78
2023/07/19 11:49:46;;;;;;;7.10;2.35;;;;;;;;;;5045475;28;20021;-79
2023/07/19 11:52:40;;;;;;;6.43;2.22;;;;;;;;;;5035385;28;20045;-76
2023/07/19 11:55:25;;;;;;;9.15;2.60;;;;;;;;;;5062112;28;20473;-78
2023/07/19 11:58:11;;;;;;;5.25;1.92;;;;;;;;;;5044643;28;20052;-67
2023/07/19 12:00:56;;;;;;;8.70;2.38;;;;;;;;;;5041661;28;20041;-66
2023/07/19 12:03:42;;;;;;;9.45;2.30;;;;;;;;;;5038759;28;20037;-66
2023/07/19 12:06:27;;;;;;;4.78;2.30;;;;;;;;;;5043064;28;20141;-67
2023/07/19 12:09:13;;;;;;;5.47;2.35;;;;;;;;;;5042742;28;20041;-67
2023/07/19 12:11:58;;;;;;;6.38;2.25;;;;;;;;;;5033545;28;20037;-66
2023/07/19 12:14:43;;;;;;;4.95;2.53;;;;;;;;;;5043047;28;20126;-63
2023/07/19 12:17:28;;;;;;;6.57;2.13;;;;;;;;;;5045514;28;20035;-66
2023/07/19 12:20:13;;;;;;;5.13;2.35;;;;;;;;;;5040803;28;20040;-66
2023/07/19 12:22:59;;;;;;;4.97;2.38;;;;;;;;;;5041698;28;20055;-68
2023/07/19 12:25:44;;;;;;;8.00;2.40;;;;;;;;;;5040460;28;20029;-67
2023/07/19 12:28:29;;;;;;;6.03;2.50;;;;;;;;;;5042965;28;20037;-69
2023/07/19 12:31:16;;;;;;;3.63;2.17;;;;;;;;;;5038318;28;20037;-64
2023/07/19 12:34:01;;;;;;;5.45;2.30;;;;;;;;;;5043794;28;20037;-70
2023/07/19 12:36:47;;;;;;;5.25;3.28;;;;;;;;;;5040347;28;20033;-71
2023/07/19 12:39:32;;;;;;;6.25;2.40;;;;;;;;;;5027933;28;20044;-68
2023/07/19 12:42:18;;;;;;;5.03;2.15;;;;;;;;;;5040929;28;20045;-70
2023/07/19 12:45:03;;;;;;;6.07;2.83;;;;;;;;;;5036687;28;20029;-68
2023/07/19 12:47:49;;;;;;;5.32;2.38;;;;;;;;;;5044398;28;20033;-68
2023/07/19 12:50:37;;;;;;;6.18;2.97;;;;;;;;;;5043245;28;20516;-64
2023/07/19 12:53:22;;;;;;;7.90;3.03;;;;;;;;;;5024820;28;20036;-67
2023/07/19 12:56:08;;;;;;;9.02;3.00;;;;;;;;;;5040504;28;20036;-70
2023/07/19 12:58:54;;;;;;;4.32;2.58;;;;;;;;;;5042567;28;20477;-68
2023/07/19 13:01:39;;;;;;;3.50;2.15;;;;;;;;;;5040070;28;20069;-68
2023/07/19 13:04:24;;;;;;;4.10;2.38;;;;;;;;;;5042245;28;20021;-73
2023/07/19 13:07:10;;;;;;;7.13;3.55;;;;;;;;;;5046224;28;20033;-69
2023/07/19 13:09:56;;;;;;;6.57;2.63;;;;;;;;;;5038510;28;20066;-67
2023/07/19 13:12:41;;;;;;;6.10;2.75;;;;;;;;;;5022713;28;20459;-73
2023/07/19 13:15:27;;;;;;;8.32;3.20;;;;;;;;;;5036373;28;20039;-68
2023/07/19 13:18:13;;;;;;;11.20;3.88;;;;;;;;;;5044148;28;20040;-69
2023/07/19 13:20:59;;;;;;;9.60;4.78;;;;;;;;;;5041922;28;20119;-65
2023/07/19 13:23:44;;;;;;;27.23;7.45;;;;;;;;;;5042935;28;20162;-68
2023/07/19 13:26:29;;;;;;;13.70;5.45;;;;;;;;;;5040484;28;20438;-67
2023/07/19 13:29:14;;;;;;;8.48;3.90;;;;;;;;;;5041576;28;20032;-71
2023/07/19 13:32:00;;;;;;;5.18;3.42;;;;;;;;;;5039090;28;20025;-72
2023/07/19 13:34:45;;;;;;;6.72;3.97;;;;;;;;;;5041863;28;20024;-69
2023/07/19 13:37:30;;;;;;;6.35;3.83;;;;;;;;;;5028799;28;20481;-70
2023/07/19 13:40:15;;;;;;;7.45;3.85;;;;;;;;;;5042692;28;20025;-68
2023/07/19 13:43:01;;;;;;;8.20;3.90;;;;;;;;;;5040998;28;20074;-68
2023/07/19 13:45:46;;;;;;;8.90;3.28;;;;;;;;;;5043167;28;20032;-62
2023/07/19 13:48:31;;;;;;;4.88;3.10;;;;;;;;;;5043544;28;20029;-67
2023/07/19 13:51:16;;;;;;;7.15;4.13;;;;;;;;;;5040685;28;20376;-67
2023/07/19 13:54:02;;;;;;;7.22;3.72;;;;;;;;;;5038350;28;20029;-67
2023/07/19 13:56:47;;;;;;;7.95;3.40;;;;;;;;;;5042539;28;20035;-65
2023/07/19 13:59:32;;;;;;;6.47;3.50;;;;;;;;;;5042059;28;20381;-66
2023/07/19 14:02:17;;;;;;;7.10;3.35;;;;;;;;;;5040504;28;20037;-65
2023/07/19 14:05:03;;;;;;;5.53;3.33;;;;;;;;;;5041461;28;20503;-65
2023/07/19 14:07:48;;;;;;;5.47;3.30;;;;;;;;;;5041229;28;20037;-62
2023/07/19 14:10:33;;;;;;;10.13;3.00;;;;;;;;;;5027870;28;20051;-61
2023/07/19 14:13:18;;;;;;;5.57;3.45;;;;;;;;;;5039825;28;20049;-64
2023/07/19 14:16:04;;;;;;;5.70;2.92;;;;;;;;;;5042614;28;20513;-63
2023/07/19 14:18:49;;;;;;;6.38;3.10;;;;;;;;;;5028145;28;20032;-62
2023/07/19 14:21:35;;;;;;;5.03;2.63;;;;;;;;;;5042897;28;20040;-64
2023/07/19 14:24:20;;;;;;;5.20;3.20;;;;;;;;;;5039786;28;20059;-63
2023/07/19 14:27:05;;;;;;;5.05;3.00;;;;;;;;;;5043735;28;20061;-71
2023/07/19 14:29:52;;;;;;;6.78;3.25;;;;;;;;;;5036185;28;20037;-74
2023/07/19 14:32:37;;;;;;;5.30;2.63;;;;;;;;;;5040750;28;20017;-74
2023/07/19 14:35:22;;;;;;;6.85;3.08;;;;;;;;;;5042587;28;20029;-72
2023/07/19 14:38:08;;;;;;;6.03;3.05;;;;;;;;;;5044906;28;20033;-73
2023/07/19 14:40:53;;;;;;;6.65;3.30;;;;;;;;;;5039477;28;20051;-65
2023/07/19 14:43:40;;;;;;;7.75;3.10;;;;;;;;;;5040429;28;20187;-60
2023/07/19 14:46:25;;;;;;;31.52;5.15;;;;;;;;;;5037504;28;20028;-62
2023/07/19 14:49:11;;;;;;;5.85;2.90;;;;;;;;;;5029235;28;20025;-62
2023/07/19 14:51:56;;;;;;;6.53;3.17;;;;;;;;;;5044246;28;20033;-64
2023/07/19 14:54:42;;;;;;;10.57;3.03;;;;;;;;;;5037827;28;20036;-60
2023/07/19 14:57:27;;;;;;;4.80;2.70;;;;;;;;;;5042075;28;20025;-60
2023/07/19 15:00:13;;;;;;;6.22;2.85;;;;;;;;;;5040891;28;20044;-66
2023/07/19 15:02:58;;;;;;;5.40;3.28;;;;;;;;;;5042491;28;20088;-66
2023/07/19 15:05:43;;;;;;;6.82;2.67;;;;;;;;;;5043701;28;20071;-68
2023/07/19 15:08:28;;;;;;;5.22;2.80;;;;;;;;;;5043232;28;20033;-67
2023/07/19 15:11:14;;;;;;;4.70;2.78;;;;;;;;;;5043836;28;20048;-67
2023/07/19 15:13:59;;;;;;;3.78;2.70;;;;;;;;;;5044965;28;20067;-67
2023/07/19 15:16:46;;;;;;;6.10;3.55;;;;;;;;;;5043285;28;20027;-69
2023/07/19 15:19:31;;;;;;;6.22;2.95;;;;;;;;;;5045810;28;20037;-67
2023/07/19 15:22:16;;;;;;;5.35;3.30;;;;;;;;;;5032922;22;20561;-68
2023/07/19 15:25:02;;;;;;;9.27;3.10;;;;;;;;;;5005827;28;20026;-69
2023/07/19 15:27:47;;;;;;;6.53;2.80;;;;;;;;;;5007034;28;20053;-71
2023/07/19 15:30:33;;;;;;;6.50;3.40;;;;;;;;;;5007215;28;20094;-71
2023/07/19 15:33:18;;;;;;;9.68;3.50;;;;;;;;;;4988445;28;20076;-71
2023/07/19 15:36:03;;;;;;;5.70;3.05;;;;;;;;;;5006891;28;20109;-70
2023/07/19 15:38:49;;;;;;;7.13;3.58;;;;;;;;;;5007668;28;20022;-68
2023/07/19 15:41:34;;;;;;;4.15;2.92;;;;;;;;;;5003274;28;20473;-68
2023/07/19 15:44:19;;;;;;;4.82;2.75;;;;;;;;;;5005796;28;20046;-69
2023/07/19 15:47:04;;;;;;;5.38;3.03;;;;;;;;;;5002220;28;20396;-69
2023/07/19 15:49:50;;;;;;;9.93;3.75;;;;;;;;;;5006011;28;20630;-69
2023/07/19 15:52:35;;;;;;;7.20;3.53;;;;;;;;;;5006371;28;20455;-70
2023/07/19 15:55:22;;;;;;;6.55;3.40;;;;;;;;;;5008277;28;20119;-71
2023/07/19 15:58:07;;;;;;;6.68;3.40;;;;;;;;;;4977587;28;20037;-68
2023/07/19 16:00:52;;;;;;;6.93;3.30;;;;;;;;;;4991558;28;20502;-69
2023/07/19 16:03:38;;;;;;;9.00;3.70;;;;;;;;;;5000030;28;20358;-68
2023/07/19 16:06:23;;;;;;;5.35;2.92;;;;;;;;;;4988401;28;20455;-67
2023/07/19 16:09:08;;;;;;;7.65;3.72;;;;;;;;;;4982428;28;20026;-68
2023/07/19 16:11:53;;;;;;;4.55;3.08;;;;;;;;;;4988271;28;20034;-68
2023/07/19 16:14:39;;;;;;;6.18;3.22;;;;;;;;;;4989820;28;20109;-68
2023/07/19 16:17:24;;;;;;;8.13;3.30;;;;;;;;;;4986457;28;20026;-68
2023/07/19 16:20:09;;;;;;;6.40;2.83;;;;;;;;;;4984257;28;20548;-68
2023/07/19 16:22:54;;;;;;;7.15;3.42;;;;;;;;;;4975146;28;20034;-67
2023/07/19 16:25:40;;;;;;;5.97;3.13;;;;;;;;;;4987771;28;20089;-70
2023/07/19 16:28:25;;;;;;;5.65;3.20;;;;;;;;;;4992492;28;20076;-69
2023/07/19 16:31:13;;;;;;;4.78;2.92;;;;;;;;;;4994273;28;20029;-73
2023/07/19 16:33:59;;;;;;;5.55;3.28;;;;;;;;;;4990083;28;20034;-68
2023/07/19 16:36:46;;;;;;;5.20;2.88;;;;;;;;;;4988284;28;20046;-67
2023/07/19 16:39:31;;;;;;;5.07;3.00;;;;;;;;;;4998979;28;20035;-70